createdAt,value
2023-03-13T00:01:25.952Z,9.73
2023-03-13T00:03:55.341Z,11.55
2023-03-13T00:06:27.873Z,8.82
2023-03-13T00:08:55.991Z,16.98
2023-03-13T00:11:23.390Z,9.75
2023-03-13T00:13:55.494Z,11.02
2023-03-13T00:16:23.031Z,12.57
2023-03-13T00:18:52.504Z,11.95
2023-03-13T00:21:22.036Z,11.65
2023-03-13T00:23:49.526Z,10.15
2023-03-13T00:26:19.377Z,15.90
2023-03-13T00:28:47.332Z,10.75
2023-03-13T00:31:23.516Z,12.07
2023-03-13T00:33:57.190Z,12.20
2023-03-13T00:36:29.837Z,9.95
2023-03-13T00:38:57.448Z,9.90
2023-03-13T00:41:26.709Z,11.82
2023-03-13T00:43:54.392Z,10.32
2023-03-13T00:46:24.450Z,11.68
2023-03-13T00:48:52.237Z,12.88
2023-03-13T00:51:20.478Z,11.02
2023-03-13T00:53:51.453Z,13.95
2023-03-13T00:56:20.201Z,10.52
2023-03-13T00:58:48.943Z,10.15
2023-03-13T01:01:24.372Z,8.77
2023-03-13T01:04:00.198Z,8.27
2023-03-13T01:06:32.657Z,10.50
2023-03-13T01:09:00.143Z,12.27
2023-03-13T01:11:29.672Z,12.00
2023-03-13T01:13:58.361Z,10.25
2023-03-13T01:16:29.015Z,12.13
2023-03-13T01:19:00.100Z,13.52
2023-03-13T01:21:27.526Z,12.63
2023-03-13T01:23:55.309Z,10.77
2023-03-13T01:26:26.019Z,10.90
2023-03-13T01:28:54.314Z,10.13
2023-03-13T01:31:30.162Z,13.45
2023-03-13T01:34:01.197Z,9.38
2023-03-13T01:36:29.637Z,13.88
2023-03-13T01:38:59.316Z,8.23
2023-03-13T01:41:27.455Z,11.90
2023-03-13T01:43:55.587Z,13.07
2023-03-13T01:46:28.598Z,14.90
2023-03-13T01:49:01.102Z,9.65
2023-03-13T01:51:35.074Z,10.68
2023-03-13T01:54:05.371Z,13.13
2023-03-13T01:56:43.422Z,8.68
2023-03-13T01:59:14.163Z,9.25
2023-03-13T02:01:44.285Z,11.50
2023-03-13T02:04:11.665Z,9.93
2023-03-13T02:06:41.517Z,16.63
2023-03-13T02:09:14.276Z,10.77
2023-03-13T02:11:50.780Z,13.07
2023-03-13T02:14:22.317Z,12.82
2023-03-13T02:16:52.063Z,8.55
2023-03-13T02:19:35.574Z,9.15
2023-03-13T02:22:14.200Z,10.15
2023-03-13T02:24:46.131Z,12.57
2023-03-13T02:27:13.066Z,10.75
2023-03-13T02:29:43.597Z,12.68
2023-03-13T02:32:13.841Z,9.65
2023-03-13T02:34:42.264Z,16.85
2023-03-13T02:37:12.957Z,13.02
2023-03-13T02:39:45.882Z,13.43
2023-03-13T02:42:16.484Z,15.25
2023-03-13T02:44:46.420Z,15.68
2023-03-13T02:47:19.056Z,9.82
2023-03-13T02:49:46.027Z,11.98
2023-03-13T02:52:27.814Z,9.15
2023-03-13T02:55:02.605Z,8.40
2023-03-13T02:57:29.809Z,12.07
2023-03-13T02:59:59.382Z,11.82
2023-03-13T03:02:26.571Z,10.45
2023-03-13T03:04:54.147Z,10.15
2023-03-13T03:07:21.153Z,9.07
2023-03-13T03:09:48.608Z,12.35
2023-03-13T03:12:19.439Z,9.45
2023-03-13T03:14:46.613Z,12.80
2023-03-13T03:17:14.450Z,8.80
2023-03-13T03:19:41.732Z,11.80
2023-03-13T03:22:09.577Z,16.00
2023-03-13T03:24:37.954Z,11.90
2023-03-13T03:27:05.381Z,11.35
2023-03-13T03:29:38.556Z,9.50
2023-03-13T03:32:06.104Z,10.63
2023-03-13T03:34:33.299Z,9.73
2023-03-13T03:37:00.469Z,12.63
2023-03-13T03:39:29.145Z,11.32
2023-03-13T03:41:56.300Z,12.05
2023-03-13T03:44:24.356Z,10.30
2023-03-13T03:46:56.317Z,12.23
2023-03-13T03:49:25.147Z,12.55
2023-03-13T03:51:52.585Z,10.52
2023-03-13T03:54:25.621Z,11.73
2023-03-13T03:56:52.621Z,11.75
2023-03-13T03:59:19.822Z,8.98
2023-03-13T04:01:56.643Z,8.73
2023-03-13T04:04:26.300Z,10.18
2023-03-13T04:07:00.520Z,11.10
2023-03-13T04:09:31.943Z,10.07
2023-03-13T04:11:59.869Z,9.80
2023-03-13T04:14:27.413Z,8.20
2023-03-13T04:16:55.058Z,10.77
2023-03-13T04:19:22.085Z,9.57
2023-03-13T04:21:49.340Z,9.20
2023-03-13T04:24:18.672Z,10.20
2023-03-13T04:26:48.534Z,8.48
2023-03-13T04:29:15.911Z,9.30
2023-03-13T04:31:59.437Z,14.93
2023-03-13T04:35:05.308Z,9.90
2023-03-13T04:37:43.632Z,12.05
2023-03-13T04:40:33.528Z,9.63
2023-03-13T04:43:23.477Z,12.13
2023-03-13T04:46:08.178Z,9.13
2023-03-13T04:49:04.840Z,10.63
2023-03-13T04:51:52.922Z,8.50
2023-03-13T04:54:29.103Z,12.48
2023-03-13T04:57:18.279Z,10.88
2023-03-13T05:00:11.784Z,9.85
2023-03-13T05:02:44.579Z,8.95
2023-03-13T05:05:26.566Z,11.90
2023-03-13T05:08:17.784Z,12.65
2023-03-13T05:11:03.963Z,9.98
2023-03-13T05:13:53.606Z,11.05
2023-03-13T05:16:50.464Z,10.05
2023-03-13T05:19:48.295Z,10.50
2023-03-13T05:22:24.767Z,10.38
2023-03-13T05:25:15.013Z,10.02
2023-03-13T05:28:17.158Z,7.95
2023-03-13T05:30:54.576Z,8.85
2023-03-13T05:33:44.821Z,11.05
2023-03-13T05:36:29.052Z,12.30
2023-03-13T05:39:16.417Z,17.52
2023-03-13T05:41:49.242Z,9.55
2023-03-13T05:44:34.532Z,7.35
2023-03-13T05:47:25.792Z,14.32
2023-03-13T05:50:15.762Z,9.07
2023-03-13T05:55:52.282Z,11.13
2023-03-13T05:58:39.134Z,12.63
2023-03-13T06:01:08.029Z,10.05
2023-03-13T06:03:49.534Z,11.85
2023-03-13T06:06:18.351Z,11.27
2023-03-13T06:08:51.474Z,9.15
2023-03-13T06:11:18.421Z,13.38
2023-03-13T06:13:45.719Z,10.95
2023-03-13T06:16:23.747Z,17.98
2023-03-13T06:18:51.154Z,14.05
2023-03-13T06:21:18.086Z,12.48
2023-03-13T06:23:45.031Z,9.23
2023-03-13T06:26:11.986Z,11.10
2023-03-13T06:28:38.952Z,10.95
2023-03-13T06:31:10.627Z,15.32
2023-03-13T06:33:38.211Z,11.88
2023-03-13T06:36:08.307Z,9.15
2023-03-13T06:38:35.220Z,12.85
2023-03-13T06:41:02.153Z,12.15
2023-03-13T06:43:29.168Z,14.15
2023-03-13T06:45:56.604Z,10.40
2023-03-13T06:48:23.648Z,11.93
2023-03-13T06:50:53.694Z,11.65
2023-03-13T06:53:20.844Z,14.73
2023-03-13T06:55:49.214Z,13.52
2023-03-13T06:58:31.192Z,12.70
2023-03-13T07:01:00.951Z,20.50
2023-03-13T07:03:28.015Z,10.77
2023-03-13T07:05:57.292Z,9.45
2023-03-13T07:08:25.765Z,11.60
2023-03-13T07:10:53.807Z,10.45
2023-03-13T07:13:21.943Z,11.57
2023-03-13T07:15:49.213Z,10.13
2023-03-13T07:18:18.579Z,12.30
2023-03-13T07:20:45.657Z,11.35
2023-03-13T07:23:12.590Z,9.50
2023-03-13T07:25:39.806Z,10.02
2023-03-13T07:28:06.749Z,9.65
2023-03-13T07:30:33.655Z,7.85
2023-03-13T07:33:00.724Z,8.77
2023-03-13T07:35:27.664Z,9.95
2023-03-13T07:37:54.592Z,9.70
2023-03-13T07:40:21.525Z,11.50
2023-03-13T07:42:48.408Z,18.33
2023-03-13T07:45:16.866Z,12.23
2023-03-13T07:47:43.759Z,12.73
2023-03-13T07:50:11.270Z,13.05
2023-03-13T07:52:38.433Z,11.85
2023-03-13T07:55:05.607Z,11.20
2023-03-13T07:57:32.475Z,11.18
2023-03-13T07:59:59.383Z,11.27
2023-03-13T08:02:26.389Z,11.32
2023-03-13T08:04:53.595Z,11.75
2023-03-13T08:07:20.609Z,11.15
2023-03-13T08:09:48.587Z,17.20
2023-03-13T08:12:15.511Z,12.20
2023-03-13T08:14:42.464Z,11.32
2023-03-13T08:17:09.349Z,9.27
2023-03-13T08:19:36.248Z,11.93
2023-03-13T08:22:03.240Z,15.13
2023-03-13T08:24:30.302Z,13.60
2023-03-13T08:26:57.375Z,11.73
2023-03-13T08:29:24.332Z,17.48
2023-03-13T08:31:54.338Z,12.52
2023-03-13T08:34:21.367Z,13.73
2023-03-13T08:36:48.586Z,15.23
2023-03-13T08:39:20.249Z,12.35
2023-03-13T08:41:47.319Z,11.73
2023-03-13T08:44:17.413Z,10.88
2023-03-13T08:46:44.873Z,9.85
2023-03-13T08:49:12.572Z,10.43
2023-03-13T08:51:40.270Z,17.33
2023-03-13T08:54:07.252Z,13.35
2023-03-13T08:56:35.055Z,17.45
2023-03-13T08:59:04.889Z,10.80
2023-03-13T09:01:34.031Z,11.02
2023-03-13T09:04:04.265Z,14.40
2023-03-13T09:06:33.437Z,14.73
2023-03-13T09:09:00.698Z,9.30
2023-03-13T09:11:31.161Z,13.43
2023-03-13T09:14:01.126Z,13.50
2023-03-13T09:16:30.508Z,11.57
2023-03-13T09:18:58.503Z,10.60
2023-03-13T09:21:34.302Z,12.20
2023-03-13T09:24:01.992Z,13.35
2023-03-13T09:26:29.262Z,10.27
2023-03-13T09:28:56.731Z,10.63
2023-03-13T09:31:26.529Z,10.13
2023-03-13T09:33:53.933Z,16.30
2023-03-13T09:36:22.907Z,18.55
2023-03-13T09:38:55.369Z,12.52
2023-03-13T09:41:53.021Z,13.32
2023-03-13T09:44:33.681Z,11.35
2023-03-13T09:47:34.263Z,9.25
2023-03-13T09:50:27.970Z,11.57
2023-03-13T09:53:03.763Z,11.52
2023-03-13T09:55:36.525Z,11.98
2023-03-13T09:58:16.536Z,18.17
2023-03-13T10:01:03.322Z,12.45
2023-03-13T10:03:38.841Z,10.93
2023-03-13T10:08:42.747Z,10.95
2023-03-13T10:11:28.323Z,11.25
2023-03-13T10:14:13.885Z,13.02
2023-03-13T10:17:09.674Z,11.90
2023-03-13T10:19:42.304Z,11.75
2023-03-13T10:24:56.242Z,11.35
2023-03-13T10:27:23.162Z,7.63
2023-03-13T10:29:52.981Z,11.07
2023-03-13T10:32:21.148Z,10.07
2023-03-13T10:34:57.136Z,12.65
2023-03-13T10:37:30.501Z,13.45
2023-03-13T10:40:25.407Z,11.95
2023-03-13T10:42:59.403Z,10.88
2023-03-13T10:45:27.354Z,11.95
2023-03-13T10:47:56.456Z,9.95
2023-03-13T10:50:26.054Z,15.00
2023-03-13T10:52:55.120Z,11.93
2023-03-13T10:55:24.131Z,12.00
2023-03-13T10:57:58.928Z,12.65
2023-03-13T11:00:37.441Z,12.97
2023-03-13T11:03:33.416Z,12.80
2023-03-13T11:06:03.354Z,11.02
2023-03-13T11:08:37.650Z,9.70
2023-03-13T11:11:16.607Z,9.98
2023-03-13T11:13:44.316Z,10.57
2023-03-13T11:16:21.558Z,9.55
2023-03-13T11:19:06.761Z,11.70
2023-03-13T11:22:00.070Z,12.50
2023-03-13T11:24:38.912Z,9.95
2023-03-13T11:27:32.949Z,13.20
2023-03-13T11:30:14.691Z,10.73
2023-03-13T11:33:05.329Z,13.38
2023-03-13T11:35:50.416Z,28.80
2023-03-13T11:38:48.077Z,37.17
2023-03-13T11:41:27.058Z,16.20
2023-03-13T11:44:19.779Z,12.63
2023-03-13T11:47:14.549Z,12.70
2023-03-13T11:50:02.806Z,12.73
2023-03-13T11:52:56.187Z,11.63
2023-03-13T11:55:38.152Z,15.43
2023-03-13T11:58:42.750Z,14.30
2023-03-13T12:01:16.221Z,15.63
2023-03-13T12:04:05.160Z,10.60
2023-03-13T12:06:47.123Z,13.55
2023-03-13T12:09:28.362Z,14.10
2023-03-13T12:12:03.310Z,12.20
2023-03-13T12:14:39.566Z,16.63
2023-03-13T12:17:12.237Z,14.65
2023-03-13T12:19:55.406Z,12.43
2023-03-13T12:22:34.127Z,13.27
2023-03-13T12:25:21.302Z,16.58
2023-03-13T12:27:54.964Z,14.55
2023-03-13T12:30:45.948Z,11.95
2023-03-13T12:33:22.841Z,12.82
2023-03-13T12:36:14.686Z,13.55
2023-03-13T12:38:51.096Z,14.90
2023-03-13T12:41:36.072Z,14.02
2023-03-13T12:44:09.269Z,12.90
2023-03-13T12:47:03.723Z,13.90
2023-03-13T12:49:51.988Z,11.15
2023-03-13T12:52:34.359Z,14.40
2023-03-13T12:55:36.817Z,15.32
2023-03-13T12:58:29.766Z,16.08
2023-03-13T13:01:04.086Z,18.08
2023-03-13T13:03:39.164Z,12.57
2023-03-13T13:06:13.178Z,15.13
2023-03-13T13:08:48.196Z,15.23
2023-03-13T13:11:34.041Z,16.83
2023-03-13T13:14:23.567Z,16.65
2023-03-13T13:17:16.505Z,13.25
2023-03-13T13:19:47.785Z,15.68
2023-03-13T13:22:39.644Z,14.77
2023-03-13T13:25:26.812Z,15.10
2023-03-13T13:27:54.045Z,14.20
2023-03-13T13:30:20.918Z,14.40
2023-03-13T13:33:09.181Z,16.25
2023-03-13T13:35:37.442Z,15.32
2023-03-13T13:38:19.638Z,12.27
2023-03-13T13:41:11.006Z,14.18
2023-03-13T13:43:48.851Z,15.45
2023-03-13T13:46:31.425Z,13.43
2023-03-13T13:49:07.697Z,15.05
2023-03-13T13:51:38.806Z,11.85
2023-03-13T13:54:30.460Z,13.63
2023-03-13T13:57:01.538Z,14.93
2023-03-13T13:59:34.527Z,17.85
2023-03-13T14:02:09.675Z,16.52
2023-03-13T14:04:47.637Z,14.68
2023-03-13T14:07:24.944Z,15.90
2023-03-13T14:10:20.571Z,17.75
2023-03-13T14:12:52.485Z,16.60
2023-03-13T14:15:23.017Z,15.98
2023-03-13T14:17:52.726Z,14.38
2023-03-13T14:20:35.950Z,15.05
2023-03-13T14:23:09.424Z,14.68
2023-03-13T14:25:48.008Z,14.77
2023-03-13T14:28:28.085Z,13.05
2023-03-13T14:30:59.039Z,16.52
2023-03-13T14:33:27.707Z,18.13
2023-03-13T14:35:57.855Z,15.38
2023-03-13T14:38:28.050Z,14.52
2023-03-13T14:40:56.175Z,19.95
2023-03-13T14:43:36.045Z,27.90
2023-03-13T14:46:30.381Z,16.80
2023-03-13T14:49:16.352Z,19.00
2023-03-13T14:54:47.722Z,19.27
2023-03-13T14:57:23.129Z,17.27
2023-03-13T14:59:51.354Z,21.52
2023-03-13T15:02:24.383Z,18.38
2023-03-13T15:04:52.813Z,18.80
2023-03-13T15:07:20.859Z,16.75
2023-03-13T15:09:48.989Z,20.10
2023-03-13T15:12:20.002Z,16.33
2023-03-13T15:14:48.532Z,15.20
2023-03-13T15:17:24.160Z,17.02
2023-03-13T15:19:56.345Z,17.52
2023-03-13T15:22:31.925Z,15.00
2023-03-13T15:27:35.890Z,19.13
2023-03-13T15:30:03.076Z,22.95
2023-03-13T15:32:33.590Z,17.58
2023-03-13T15:35:02.081Z,14.40
2023-03-13T15:37:30.594Z,16.20
2023-03-13T15:39:58.134Z,16.70
2023-03-13T15:42:25.766Z,14.07
2023-03-13T15:44:52.769Z,18.92
2023-03-13T15:47:21.919Z,23.38
2023-03-13T15:49:49.080Z,17.90
2023-03-13T15:52:22.960Z,16.63
2023-03-13T15:54:51.434Z,15.90
2023-03-13T15:57:25.022Z,13.68
2023-03-13T15:59:53.679Z,16.67
2023-03-13T16:02:23.254Z,15.00
2023-03-13T16:04:51.117Z,13.32
2023-03-13T16:07:21.602Z,15.77
2023-03-13T16:09:48.950Z,15.73
2023-03-13T16:12:16.081Z,17.27
2023-03-13T16:14:42.967Z,17.02
2023-03-13T16:17:14.406Z,15.90
2023-03-13T16:19:41.606Z,15.45
2023-03-13T16:22:08.520Z,14.82
2023-03-13T16:24:35.528Z,19.65
2023-03-13T16:27:02.793Z,18.38
2023-03-13T16:29:29.753Z,16.13
2023-03-13T16:31:56.780Z,16.88
2023-03-13T16:34:23.724Z,13.95
2023-03-13T16:36:50.686Z,15.80
2023-03-13T16:39:18.554Z,15.82
2023-03-13T16:41:45.519Z,17.45
2023-03-13T16:44:12.506Z,16.27
2023-03-13T16:46:44.525Z,16.25
2023-03-13T16:49:18.141Z,16.30
2023-03-13T16:51:45.130Z,18.10
2023-03-13T16:54:12.528Z,15.95
2023-03-13T16:56:43.073Z,17.65
2023-03-13T16:59:14.873Z,16.75
2023-03-13T17:01:41.870Z,15.95
2023-03-13T17:04:08.881Z,24.40
2023-03-13T17:06:44.812Z,20.60
2023-03-13T17:09:15.500Z,18.67
2023-03-13T17:11:42.791Z,15.77
2023-03-13T17:14:10.471Z,19.90
2023-03-13T17:16:42.451Z,17.75
2023-03-13T17:19:17.132Z,16.73
2023-03-13T17:21:44.357Z,17.70
2023-03-13T17:24:11.285Z,16.00
2023-03-13T17:26:39.251Z,17.30
2023-03-13T17:29:08.019Z,16.95
2023-03-13T17:31:38.465Z,24.10
2023-03-13T17:34:06.239Z,15.05
2023-03-13T17:36:33.409Z,16.95
2023-03-13T17:39:02.323Z,18.42
2023-03-13T17:41:32.082Z,15.48
2023-03-13T17:43:59.581Z,16.58
2023-03-13T17:46:58.784Z,17.63
2023-03-13T17:49:25.842Z,17.50
2023-03-13T17:51:52.752Z,21.52
2023-03-13T17:54:19.683Z,21.65
2023-03-13T17:56:47.132Z,20.35
2023-03-13T17:59:16.802Z,15.95
2023-03-13T18:01:44.659Z,19.33
2023-03-13T18:04:11.874Z,14.35
2023-03-13T18:06:47.694Z,19.83
2023-03-13T18:09:17.625Z,13.98
2023-03-13T18:11:45.778Z,16.70
2023-03-13T18:14:12.758Z,16.17
2023-03-13T18:16:47.930Z,16.17
2023-03-13T18:19:22.780Z,20.35
2023-03-13T18:21:52.295Z,19.48
2023-03-13T18:24:19.667Z,18.10
2023-03-13T18:26:48.797Z,17.83
2023-03-13T18:29:17.917Z,17.23
2023-03-13T18:31:45.346Z,15.15
2023-03-13T18:34:12.687Z,17.40
2023-03-13T18:36:39.699Z,20.92
2023-03-13T18:39:06.835Z,19.38
2023-03-13T18:41:34.349Z,22.17
2023-03-13T18:44:01.806Z,20.80
2023-03-13T18:46:34.637Z,19.98
2023-03-13T18:49:01.665Z,17.67
2023-03-13T18:51:28.942Z,18.55
2023-03-13T18:53:55.919Z,16.33
2023-03-13T18:56:33.830Z,21.52
2023-03-13T18:59:00.865Z,16.85
2023-03-13T19:01:31.704Z,15.48
2023-03-13T19:04:00.130Z,13.45
2023-03-13T19:06:33.120Z,14.73
2023-03-13T19:09:03.308Z,12.13
2023-03-13T19:11:31.880Z,18.98
2023-03-13T19:13:59.656Z,15.50
2023-03-13T19:16:45.761Z,10.02
2023-03-13T19:21:40.889Z,13.25
2023-03-13T19:24:08.540Z,15.30
2023-03-13T19:26:41.974Z,15.68
2023-03-13T19:29:18.348Z,18.40
2023-03-13T19:31:45.829Z,16.70
2023-03-13T19:34:13.320Z,19.23
2023-03-13T19:36:42.271Z,17.42
2023-03-13T19:39:15.629Z,19.33
2023-03-13T19:41:42.740Z,16.08
2023-03-13T19:44:09.674Z,18.98
2023-03-13T19:46:39.363Z,20.77
2023-03-13T19:49:10.924Z,20.23
2023-03-13T19:51:38.078Z,17.17
2023-03-13T19:54:05.242Z,20.70
2023-03-13T19:56:33.320Z,19.10
2023-03-13T19:59:05.150Z,16.58
2023-03-13T20:01:32.625Z,16.50
2023-03-13T20:03:59.919Z,21.63
2023-03-13T20:06:29.929Z,20.77
2023-03-13T20:08:58.980Z,22.20
2023-03-13T20:11:26.529Z,14.23
2023-03-13T20:13:54.247Z,27.95
2023-03-13T20:16:30.137Z,22.98
2023-03-13T20:18:58.196Z,18.05
2023-03-13T20:21:30.428Z,17.75
2023-03-13T20:23:59.080Z,19.08
2023-03-13T20:26:27.583Z,26.40
2023-03-13T20:28:56.038Z,23.33
2023-03-13T20:31:28.715Z,23.08
2023-03-13T20:33:56.674Z,25.38
2023-03-13T20:36:24.439Z,23.92
2023-03-13T20:38:52.076Z,19.45
2023-03-13T20:41:24.817Z,20.67
2023-03-13T20:43:52.587Z,26.35
2023-03-13T20:46:21.035Z,23.45
2023-03-13T20:48:48.715Z,22.80
2023-03-13T20:51:16.541Z,23.58
2023-03-13T20:53:43.666Z,24.08
2023-03-13T20:56:12.554Z,29.45
2023-03-13T20:58:40.433Z,21.45
2023-03-13T21:01:08.102Z,26.63
2023-03-13T21:03:36.257Z,21.83
2023-03-13T21:06:10.003Z,23.48
2023-03-13T21:08:38.677Z,28.35
2023-03-13T21:11:21.126Z,25.40
2023-03-13T21:13:48.455Z,26.70
2023-03-13T21:16:17.058Z,20.17
2023-03-13T21:18:44.308Z,24.00
2023-03-13T21:21:15.164Z,24.33
2023-03-13T21:23:42.329Z,28.85
2023-03-13T21:26:10.395Z,18.85
2023-03-13T21:28:38.912Z,21.15
2023-03-13T21:31:14.849Z,24.52
2023-03-13T21:33:42.914Z,26.73
2023-03-13T21:36:11.494Z,26.77
2023-03-13T21:38:38.777Z,23.63
2023-03-13T21:41:10.875Z,24.48
2023-03-13T21:43:41.402Z,23.77
2023-03-13T21:46:12.821Z,24.35
2023-03-13T21:48:41.159Z,21.38
2023-03-13T21:51:09.600Z,24.50
2023-03-13T21:53:38.176Z,23.33
2023-03-13T21:56:06.144Z,27.23
2023-03-13T21:58:33.074Z,23.33
2023-03-13T22:01:00.761Z,21.02
2023-03-13T22:03:27.730Z,24.02
2023-03-13T22:05:54.988Z,24.48
2023-03-13T22:08:22.028Z,21.52
2023-03-13T22:10:51.002Z,25.90
2023-03-13T22:13:18.310Z,22.52
2023-03-13T22:15:46.861Z,22.63
2023-03-13T22:18:17.329Z,25.17
2023-03-13T22:20:44.383Z,26.60
2023-03-13T22:23:12.488Z,31.73
2023-03-13T22:25:41.055Z,49.97
2023-03-13T22:28:08.886Z,46.08
2023-03-13T22:30:37.453Z,40.50
2023-03-13T22:33:06.800Z,45.42
2023-03-13T22:35:35.002Z,34.78
2023-03-13T22:38:02.180Z,30.75
2023-03-13T22:40:29.153Z,26.88
2023-03-13T22:42:56.153Z,28.63
2023-03-13T22:45:23.720Z,27.60
2023-03-13T22:47:50.922Z,27.38
2023-03-13T22:50:20.833Z,25.60
2023-03-13T22:52:47.739Z,28.83
2023-03-13T22:55:14.782Z,25.13
2023-03-13T22:57:41.686Z,25.83
2023-03-13T23:00:09.708Z,30.33
2023-03-13T23:02:36.622Z,27.85
2023-03-13T23:05:03.723Z,28.75
2023-03-13T23:07:31.104Z,30.20
2023-03-13T23:09:59.099Z,25.08
2023-03-13T23:12:26.720Z,29.80
2023-03-13T23:14:54.547Z,26.00
2023-03-13T23:17:21.604Z,26.65
2023-03-13T23:19:48.681Z,25.95
2023-03-13T23:22:18.124Z,29.42
2023-03-13T23:24:45.189Z,23.73
2023-03-13T23:27:12.395Z,29.10
2023-03-13T23:29:40.033Z,23.17
2023-03-13T23:32:09.857Z,25.30
2023-03-13T23:34:36.859Z,24.10
2023-03-13T23:37:03.917Z,27.48
2023-03-13T23:39:31.587Z,26.90
2023-03-13T23:41:58.527Z,22.27
2023-03-13T23:44:25.769Z,26.42
2023-03-13T23:46:52.696Z,23.88
2023-03-13T23:49:19.584Z,25.15
2023-03-13T23:51:46.516Z,24.38
2023-03-13T23:54:13.564Z,23.65
2023-03-13T23:56:40.467Z,26.00
2023-03-13T23:59:07.412Z,25.60
